Time;durP1;ratioP1;P1;durP2;ratioP2;P2;SDS_P1;SDS_P2;PMS_P1;PMS_P2;Temp;Humidity;BMP_temperature;BMP_pressure;BME280_temperature;BME280_humidity;BME280_pressure;Samples;Min_cycle;Max_cycle;Signal;HPM_P1;HPM_P2
2023/03/26 00:01:08;;;;;;;8.20;3.20;;;;;;;14.38;43.99;99995.22;6192081;23;20012;-92
2023/03/26 00:03:34;;;;;;;8.77;3.63;;;;;;;14.29;44.53;99996.38;6220860;23;20062;-85
2023/03/26 00:06:08;;;;;;;12.27;3.38;;;;;;;14.45;44.88;99998.72;6221815;23;20077;-85
2023/03/26 00:08:35;;;;;;;7.03;2.83;;;;;;;14.36;45.99;99999.91;6226877;23;20139;-85
2023/03/26 00:11:02;;;;;;;9.68;2.80;;;;;;;14.28;46.09;99997.41;6206327;23;20012;-84
2023/03/26 00:13:28;;;;;;;9.27;2.55;;;;;;;13.97;46.96;99989.88;6199017;23;20088;-89
2023/03/26 00:15:53;;;;;;;9.60;2.72;;;;;;;13.66;47.23;99987.63;6173244;23;20078;-86
2023/03/26 00:18:20;;;;;;;11.85;3.38;;;;;;;13.44;48.36;99984.22;6195967;23;20087;-85
2023/03/26 00:20:46;;;;;;;5.97;2.70;;;;;;;13.34;48.51;99986.38;6196168;23;20023;-85
2023/03/26 00:23:13;;;;;;;9.05;2.83;;;;;;;13.38;48.48;99990.31;6220463;23;20016;-85
2023/03/26 00:25:40;;;;;;;8.05;2.70;;;;;;;13.35;49.76;100001.34;6218374;23;20009;-85
2023/03/26 00:28:07;;;;;;;8.30;2.70;;;;;;;13.57;49.15;99998.63;6192507;23;20012;-85
2023/03/26 00:30:34;;;;;;;7.13;2.83;;;;;;;13.35;50.53;99995.19;6217564;23;20012;-84
2023/03/26 00:33:01;;;;;;;7.68;3.65;;;;;;;13.42;49.51;99996.88;6219757;23;20013;-84
2023/03/26 00:35:28;;;;;;;7.72;3.47;;;;;;;13.33;48.91;99998.03;6191306;23;20096;-84
2023/03/26 00:37:54;;;;;;;11.40;3.20;;;;;;;13.15;49.35;100004.84;6189921;23;20074;-83
2023/03/26 00:40:22;;;;;;;7.28;3.08;;;;;;;13.20;49.47;100005.09;6217135;23;20011;-85
2023/03/26 00:42:47;;;;;;;10.82;2.60;;;;;;;13.39;49.05;99991.09;6190174;23;20009;-84
2023/03/26 00:45:13;;;;;;;5.90;2.65;;;;;;;12.82;51.29;99999.19;6217001;23;20024;-86
2023/03/26 00:47:39;;;;;;;7.32;2.78;;;;;;;13.08;50.52;99998.59;6217389;23;20491;-85
2023/03/26 00:50:06;;;;;;;8.73;2.83;;;;;;;12.98;50.08;99998.94;6196022;23;20042;-85
2023/03/26 00:52:32;;;;;;;7.38;2.75;;;;;;;12.62;51.05;99998.97;6228654;23;20009;-84
2023/03/26 00:54:57;;;;;;;9.60;2.70;;;;;;;12.20;52.73;100004.16;6230187;23;20011;-87
2023/03/26 00:57:28;;;;;;;10.82;2.72;;;;;;;12.01;53.32;99999.44;6197062;23;20024;-86
2023/03/26 00:59:54;;;;;;;5.25;2.40;;;;;;;11.90;54.32;99988.25;6216509;23;20016;-85
2023/03/26 01:02:19;;;;;;;8.50;2.75;;;;;;;12.02;53.95;99990.47;6216472;23;20013;-85
2023/03/26 01:04:54;;;;;;;6.30;2.45;;;;;;;12.31;52.61;99993.91;6216676;23;20036;-84
2023/03/26 01:07:27;;;;;;;8.30;2.90;;;;;;;12.53;52.42;99994.75;6189372;23;20039;-85
2023/03/26 01:09:55;;;;;;;6.22;2.30;;;;;;;12.64;51.78;99996.94;6189901;23;20013;-86
2023/03/26 01:12:23;;;;;;;8.65;2.95;;;;;;;12.61;51.85;99992.00;6189721;23;20053;-84
2023/03/26 01:14:51;;;;;;;11.75;2.25;;;;;;;12.68;51.82;99987.59;6189440;23;20016;-84
2023/03/26 01:17:17;;;;;;;5.97;2.92;;;;;;;12.64;51.39;99991.63;6215404;23;20095;-84
2023/03/26 01:19:50;;;;;;;7.93;2.55;;;;;;;12.42;52.43;99982.81;6189095;23;20084;-86
2023/03/26 01:22:25;;;;;;;5.68;2.63;;;;;;;12.40;52.04;99973.34;6189337;23;20012;-83
2023/03/26 01:24:52;;;;;;;6.70;2.83;;;;;;;12.18;53.11;99979.63;6189562;23;20016;-84
2023/03/26 01:27:41;;;;;;;6.25;2.30;;;;;;;12.08;53.02;99979.09;6215276;23;20044;-87
2023/03/26 01:30:41;;;;;;;8.50;2.70;;;;;;;12.02;53.60;99971.88;6215294;23;20435;-83
2023/03/26 01:33:28;;;;;;;6.55;2.70;;;;;;;11.76;55.34;99986.44;6191481;23;20013;-87
2023/03/26 01:36:15;;;;;;;7.93;3.10;;;;;;;11.80;55.30;99974.44;6191445;23;20012;-87
2023/03/26 01:39:05;;;;;;;13.00;3.78;;;;;;;11.40;57.79;99964.25;6190427;23;20009;-86
2023/03/26 01:41:42;;;;;;;14.30;4.10;;;;;;;11.64;56.19;99961.31;6217489;23;20016;-86
2023/03/26 01:44:14;;;;;;;7.82;3.38;;;;;;;11.63;56.73;99954.38;6217537;23;20019;-85
2023/03/26 01:46:41;;;;;;;8.65;3.20;;;;;;;11.67;56.47;99957.47;6217151;23;20432;-85
2023/03/26 01:49:12;;;;;;;11.70;3.22;;;;;;;11.45;57.30;99953.88;6218079;23;20016;-82
2023/03/26 01:51:41;;;;;;;8.00;2.83;;;;;;;11.66;55.51;99938.09;6191434;23;20112;-84
2023/03/26 01:54:15;;;;;;;11.77;3.10;;;;;;;11.80;55.89;99933.78;6218204;23;20462;-86
2023/03/26 01:57:15;;;;;;;7.05;2.78;;;;;;;11.06;59.62;99926.75;6191676;23;20087;-84
2023/03/26 01:59:49;;;;;;;8.68;3.50;;;;;;;11.17;60.01;99935.09;6217962;23;20394;-88
2023/03/26 02:02:34;;;;;;;7.63;3.95;;;;;;;11.35;60.24;99937.41;6192338;23;20339;-85
2023/03/26 02:06:29;;;;;;;11.07;3.60;;;;;;;11.09;62.39;99934.34;6167063;23;20015;-86
2023/03/26 02:09:08;;;;;;;12.23;3.30;;;;;;;11.12;64.26;99920.72;6187249;23;20016;-85
2023/03/26 02:11:37;;;;;;;9.30;3.50;;;;;;;11.14;67.27;99913.41;6205644;23;20004;-86
2023/03/26 02:14:05;;;;;;;12.32;3.35;;;;;;;11.04;72.15;99910.19;6218211;23;20467;-85
2023/03/26 02:16:31;;;;;;;8.77;3.38;;;;;;;10.76;73.64;99910.78;6217460;23;20009;-83
2023/03/26 02:18:58;;;;;;;9.35;4.13;;;;;;;10.57;76.86;99916.53;6191035;23;20075;-85
2023/03/26 02:21:25;;;;;;;12.88;4.10;;;;;;;10.72;75.88;99911.28;6218615;23;20327;-87
2023/03/26 02:24:01;;;;;;;14.93;4.25;;;;;;;11.05;75.66;99919.78;6194311;23;20032;-86
2023/03/26 02:26:32;;;;;;;8.70;4.63;;;;;;;10.93;78.78;99915.94;6194255;23;20020;-88
2023/03/26 02:29:11;;;;;;;15.80;6.10;;;;;;;11.12;82.91;99915.41;6174042;23;20458;-87
2023/03/26 02:31:38;;;;;;;11.52;6.70;;;;;;;11.02;89.44;99912.19;6218949;23;20395;-87
2023/03/26 02:34:04;;;;;;;13.10;6.47;;;;;;;10.61;93.01;99912.53;6221419;23;20106;-84
2023/03/26 02:36:34;;;;;;;12.73;5.82;;;;;;;10.26;96.51;99915.75;6193510;23;20013;-86
2023/03/26 02:39:03;;;;;;;14.80;6.03;;;;;;;10.21;98.49;99902.19;6221445;23;20099;-86
2023/03/26 02:41:33;;;;;;;17.02;6.75;;;;;;;10.25;100.00;99912.28;6201858;23;20016;-89
2023/03/26 02:44:04;;;;;;;17.52;6.68;;;;;;;9.88;100.00;99908.66;6208181;23;20017;-89
2023/03/26 02:46:52;;;;;;;15.70;7.35;;;;;;;10.00;100.00;99912.56;6236915;23;20027;-91
2023/03/26 02:49:40;;;;;;;16.33;7.97;;;;;;;10.14;100.00;99917.16;6188080;23;20017;-87
2023/03/26 02:52:19;;;;;;;20.30;7.75;;;;;;;9.98;100.00;99914.53;6234051;23;20023;-89
2023/03/26 02:54:52;;;;;;;20.25;9.57;;;;;;;9.68;100.00;99906.41;6234208;23;20053;-93
2023/03/26 03:00:15;;;;;;;15.35;8.82;;;;;;;9.79;100.00;99911.34;6177610;23;20025;-86
2023/03/26 03:02:48;;;;;;;20.95;10.52;;;;;;;9.71;100.00;99915.84;6194587;23;20053;-91
2023/03/26 03:05:53;;;;;;;29.35;11.25;;;;;;;9.47;100.00;99914.09;6128163;23;20022;-90
2023/03/26 03:08:35;;;;;;;23.00;13.23;;;;;;;9.30;100.00;99901.91;6197689;23;20009;-92
2023/03/26 03:11:34;;;;;;;21.48;12.55;;;;;;;9.16;100.00;99899.94;6173960;23;20036;-91
2023/03/26 03:14:00;;;;;;;21.58;11.10;;;;;;;9.30;100.00;99907.19;6149216;23;20017;-88
2023/03/26 03:16:29;;;;;;;32.00;11.35;;;;;;;9.23;100.00;99908.88;6172560;23;20023;-88
2023/03/26 03:18:58;;;;;;;19.08;10.88;;;;;;;9.03;100.00;99915.50;6169610;23;20439;-90
2023/03/26 03:21:33;;;;;;;19.33;10.60;;;;;;;8.87;100.00;99904.94;6168501;23;20005;-90
2023/03/26 03:23:58;;;;;;;19.10;9.38;;;;;;;8.92;100.00;99899.97;6193189;23;20014;-90
2023/03/26 03:26:28;;;;;;;24.15;10.85;;;;;;;8.85;100.00;99902.44;6189822;23;20084;-89
2023/03/26 03:29:06;;;;;;;16.63;9.73;;;;;;;9.05;100.00;99903.75;6172770;23;20018;-89
2023/03/26 03:31:33;;;;;;;18.02;9.98;;;;;;;9.13;100.00;99902.94;6201972;23;20076;-86
2023/03/26 03:34:03;;;;;;;21.67;9.75;;;;;;;9.04;100.00;99906.59;6203522;23;20013;-86
2023/03/26 03:36:32;;;;;;;23.80;11.48;;;;;;;9.20;100.00;99902.09;6176475;23;20005;-87
2023/03/26 03:39:05;;;;;;;23.55;10.02;;;;;;;9.23;100.00;99907.03;6195242;23;20013;-87
2023/03/26 03:41:32;;;;;;;21.75;9.93;;;;;;;9.26;100.00;99909.34;6197428;23;20052;-86
2023/03/26 03:44:00;;;;;;;26.08;11.18;;;;;;;9.42;100.00;99916.41;6178628;23;20020;-84
2023/03/26 03:46:28;;;;;;;18.00;10.38;;;;;;;9.47;100.00;99913.28;6200732;23;20060;-87
2023/03/26 03:48:54;;;;;;;19.40;10.35;;;;;;;9.66;100.00;99913.69;6200528;23;20089;-88
2023/03/26 03:51:25;;;;;;;19.20;9.55;;;;;;;9.79;100.00;99923.72;6174556;23;20021;-86
2023/03/26 03:53:59;;;;;;;18.08;10.95;;;;;;;9.99;100.00;99918.84;6179988;23;19998;-84
2023/03/26 03:56:53;;;;;;;21.17;11.25;;;;;;;10.19;100.00;99912.16;6203208;23;20078;-85
2023/03/26 03:59:39;;;;;;;16.38;10.18;;;;;;;9.83;100.00;99910.00;6165253;23;20014;-89
2023/03/26 04:02:07;;;;;;;28.00;10.82;;;;;;;9.60;100.00;99908.28;6166357;23;20089;-88
2023/03/26 04:04:48;;;;;;;22.58;10.88;;;;;;;9.46;100.00;99907.16;6169599;23;20496;-86
2023/03/26 04:07:18;;;;;;;23.85;10.48;;;;;;;9.37;100.00;99905.53;6162316;23;20033;-87
2023/03/26 04:10:11;;;;;;;;;;;;;;;9.42;100.00;99905.84;6149583;23;20013;-87
2023/03/26 04:12:56;;;;;;;21.83;9.55;;;;;;;9.50;100.00;99897.88;6161113;23;19919;-86
2023/03/26 04:15:42;;;;;;;20.33;8.77;;;;;;;9.74;100.00;99911.00;6161572;23;20036;-89
2023/03/26 04:18:11;;;;;;;19.77;8.93;;;;;;;10.08;100.00;99905.41;6185861;23;20017;-87
2023/03/26 04:20:45;;;;;;;18.75;8.38;;;;;;;9.93;100.00;99903.66;6158807;23;20037;-88
2023/03/26 04:23:16;;;;;;;15.32;7.72;;;;;;;9.93;100.00;99903.66;6193544;23;20014;-89
2023/03/26 04:26:05;;;;;;;16.13;7.43;;;;;;;9.78;100.00;99895.63;6202989;23;20061;-83
2023/03/26 04:29:10;;;;;;;16.95;6.63;;;;;;;9.78;100.00;99899.09;6182308;23;20021;-82
2023/03/26 04:32:05;;;;;;;16.52;6.63;;;;;;;9.77;100.00;99897.47;6177190;23;20018;-86
2023/03/26 04:34:32;;;;;;;11.00;5.95;;;;;;;10.03;100.00;99904.28;6184238;23;20005;-90
2023/03/26 04:37:18;;;;;;;14.93;5.70;;;;;;;9.98;100.00;99898.66;6158388;23;20464;-85
2023/03/26 04:39:49;;;;;;;10.98;5.95;;;;;;;9.69;100.00;99896.66;6190927;23;20065;-87
2023/03/26 04:42:21;;;;;;;10.80;5.10;;;;;;;9.66;100.00;99892.53;6172347;23;20084;-86
2023/03/26 04:45:01;;;;;;;16.77;4.82;;;;;;;9.77;100.00;99897.47;6171691;23;20017;-86
2023/03/26 04:47:31;;;;;;;10.45;3.95;;;;;;;9.73;100.00;99898.78;6172518;23;20045;-88
2023/03/26 04:50:03;;;;;;;8.65;3.10;;;;;;;9.24;100.00;99897.31;6195471;23;20045;-89
2023/03/26 04:52:29;;;;;;;8.65;3.15;;;;;;;9.02;100.00;99897.97;6172980;23;20002;-86
2023/03/26 04:55:28;;;;;;;4.85;2.88;;;;;;;8.96;100.00;99906.59;6172226;23;20372;-90
2023/03/26 04:58:04;;;;;;;10.93;2.88;;;;;;;8.82;100.00;99911.53;6197081;23;20125;-88
2023/03/26 05:00:49;;;;;;;10.57;3.58;;;;;;;8.69;100.00;99905.09;6188630;23;20018;-87
2023/03/26 05:03:19;;;;;;;9.05;4.03;;;;;;;8.79;100.00;99906.59;6192075;23;20021;-88
2023/03/26 05:05:48;;;;;;;12.63;3.60;;;;;;;8.56;100.00;99913.53;6197065;23;20037;-93
2023/03/26 05:08:14;;;;;;;12.77;3.33;;;;;;;8.81;100.00;99911.72;6174797;23;20017;-87
2023/03/26 05:10:42;;;;;;;7.85;3.35;;;;;;;8.98;100.00;99913.34;6176476;23;20036;-91
2023/03/26 05:13:12;;;;;;;14.32;5.20;;;;;;;8.91;100.00;99914.19;6176067;23;20066;-90
2023/03/26 05:15:44;;;;;;;10.98;4.20;;;;;;;8.75;100.00;99918.47;6175769;23;20400;-90
2023/03/26 05:18:32;;;;;;;7.88;3.42;;;;;;;8.96;98.12;99914.50;6174397;23;20033;-90
2023/03/26 05:20:59;;;;;;;6.18;3.05;;;;;;;9.15;93.52;99922.91;6201447;23;20467;-90
2023/03/26 05:23:45;;;;;;;10.98;3.15;;;;;;;9.09;92.65;99918.28;6169503;23;20017;-90
2023/03/26 05:26:21;;;;;;;7.60;2.90;;;;;;;8.99;95.26;99916.81;6167974;23;20073;-87
2023/03/26 05:28:50;;;;;;;5.15;2.80;;;;;;;9.11;90.98;99918.16;6169622;23;20283;-88
2023/03/26 05:31:23;;;;;;;5.30;3.10;;;;;;;9.10;89.05;99919.97;6173361;23;20020;-92
2023/03/26 05:33:55;;;;;;;6.18;2.85;;;;;;;9.19;86.33;99915.47;6175841;23;20020;-89
2023/03/26 05:36:22;;;;;;;6.10;2.47;;;;;;;9.72;83.16;99918.31;6169534;23;20044;-86
2023/03/26 05:39:02;;;;;;;9.93;2.88;;;;;;;9.89;80.47;99913.78;6192924;23;20009;-87
2023/03/26 05:41:57;;;;;;;7.97;2.50;;;;;;;10.41;79.58;99919.28;6144317;23;20017;-90
2023/03/26 05:44:31;;;;;;;10.00;2.38;;;;;;;11.07;70.08;99926.56;6196755;23;20052;-86
2023/03/26 05:47:00;;;;;;;6.43;2.95;;;;;;;11.83;64.65;99934.25;6170642;23;20037;-89
2023/03/26 05:49:27;;;;;;;7.15;2.75;;;;;;;11.50;65.12;99948.84;6202147;23;20031;-86
2023/03/26 05:51:53;;;;;;;7.20;2.50;;;;;;;11.70;65.60;99938.53;6203502;23;20001;-89
2023/03/26 05:54:47;;;;;;;5.20;2.28;;;;;;;12.92;60.92;99936.69;6175969;23;20014;-89
2023/03/26 05:57:32;;;;;;;7.15;3.05;;;;;;;12.00;61.68;99929.53;6194582;23;20024;-87
2023/03/26 06:00:17;;;;;;;9.35;2.80;;;;;;;10.85;68.95;99912.34;6173138;23;20021;-86
2023/03/26 06:02:43;;;;;;;6.18;2.60;;;;;;;10.44;72.55;99924.25;6198156;23;20045;-86
2023/03/26 06:05:36;;;;;;;10.77;2.50;;;;;;;10.68;70.56;99916.13;6174734;23;20040;-88
2023/03/26 06:08:24;;;;;;;9.10;3.13;;;;;;;11.18;68.30;99917.34;6174113;23;20021;-88
2023/03/26 06:11:00;;;;;;;7.07;2.58;;;;;;;11.59;65.32;99917.75;6205427;23;20013;-88
2023/03/26 06:13:29;;;;;;;8.00;2.60;;;;;;;11.52;64.41;99915.00;6183475;23;20044;-88
2023/03/26 06:15:57;;;;;;;16.45;2.88;;;;;;;11.10;67.77;99912.13;6204875;23;20020;-86
2023/03/26 06:18:30;;;;;;;4.20;2.88;;;;;;;11.00;67.97;99906.25;6205955;23;20024;-85
2023/03/26 06:21:11;;;;;;;8.45;2.60;;;;;;;10.61;69.63;99898.44;6205099;23;20028;-85
2023/03/26 06:23:59;;;;;;;10.50;3.20;;;;;;;10.19;74.10;99894.44;6181703;23;20005;-89
2023/03/26 06:26:41;;;;;;;10.73;2.80;;;;;;;10.31;74.64;99892.22;6208102;23;20014;-85
2023/03/26 06:29:24;;;;;;;7.28;3.17;;;;;;;10.77;71.78;99882.44;6183012;23;20005;-85
2023/03/26 06:32:04;;;;;;;7.57;3.15;;;;;;;10.69;68.02;99885.16;6182934;23;20009;-87
2023/03/26 06:34:43;;;;;;;10.68;2.97;;;;;;;11.48;65.79;99896.97;6208344;23;20001;-83
2023/03/26 06:37:09;;;;;;;10.25;3.28;;;;;;;10.88;69.25;99893.44;6183122;23;20002;-84
2023/03/26 06:39:44;;;;;;;9.85;3.20;;;;;;;11.61;63.65;99902.47;6208333;23;20001;-85
2023/03/26 06:42:36;;;;;;;5.38;3.00;;;;;;;11.20;64.67;99902.09;6183633;23;20028;-89
2023/03/26 06:45:34;;;;;;;7.10;3.00;;;;;;;11.63;63.83;99908.44;6187395;23;20570;-88
2023/03/26 06:48:26;;;;;;;5.50;3.00;;;;;;;11.56;64.58;99911.00;6183806;23;20009;-87
2023/03/26 06:51:27;;;;;;;7.60;3.35;;;;;;;11.62;63.52;99910.25;6182986;23;20005;-87
2023/03/26 06:54:24;;;;;;;13.57;2.75;;;;;;;11.69;61.17;99911.16;6183849;23;20021;-84
2023/03/26 06:57:09;;;;;;;5.57;3.20;;;;;;;12.54;58.70;99916.69;6183410;23;20013;-89
2023/03/26 07:00:02;;;;;;;10.48;4.18;;;;;;;12.85;58.69;99909.22;6179992;23;20021;-88
2023/03/26 07:02:46;;;;;;;13.75;4.25;;;;;;;12.91;59.34;99905.78;6181396;23;20012;-86
2023/03/26 07:05:49;;;;;;;9.07;4.43;;;;;;;12.24;63.83;99904.50;6202899;23;20021;-85
2023/03/26 07:08:33;;;;;;;;;;;;;;;12.34;65.48;99905.00;6184173;23;20052;-85
2023/03/26 07:11:19;;;;;;;10.23;4.85;;;;;;;11.78;71.07;99904.78;6183485;23;20060;-85
2023/03/26 07:14:08;;;;;;;10.30;5.13;;;;;;;11.52;74.83;99888.47;6182832;23;20021;-88
2023/03/26 07:16:50;;;;;;;17.10;6.13;;;;;;;11.25;79.07;99886.44;6206262;23;20006;-85
2023/03/26 07:19:41;;;;;;;16.90;6.20;;;;;;;10.89;81.75;99876.53;6180323;23;20028;-86
2023/03/26 07:22:14;;;;;;;12.30;5.90;;;;;;;10.77;83.37;99883.25;6156938;23;20021;-87
2023/03/26 07:25:02;;;;;;;14.07;6.38;;;;;;;11.16;82.13;99890.19;6202656;23;20272;-87
2023/03/26 07:28:05;;;;;;;13.05;6.25;;;;;;;11.39;81.98;99893.59;6181120;23;20025;-85
2023/03/26 07:31:13;;;;;;;23.13;6.35;;;;;;;11.22;84.01;99876.19;6179909;23;20144;-85
2023/03/26 07:33:51;;;;;;;13.50;6.53;;;;;;;11.35;82.93;99866.59;6179969;23;20017;-84
2023/03/26 07:36:58;;;;;;;14.30;6.40;;;;;;;11.30;82.19;99860.22;6181516;23;20002;-86
2023/03/26 07:39:56;;;;;;;16.58;6.75;;;;;;;11.12;84.68;99843.81;6181285;23;20081;-84
2023/03/26 07:43:32;;;;;;;18.30;6.28;;;;;;;11.12;86.10;99841.16;6153041;23;20009;-82
2023/03/26 07:46:12;;;;;;;14.32;6.63;;;;;;;11.00;84.42;99842.63;6182583;23;20010;-84
2023/03/26 07:49:03;;;;;;;16.00;6.00;;;;;;;11.19;83.85;99850.03;6179444;23;20341;-84
2023/03/26 07:51:52;;;;;;;15.90;6.47;;;;;;;11.89;81.07;99861.84;6167964;23;20017;-82
2023/03/26 07:54:47;;;;;;;12.90;6.15;;;;;;;12.13;78.45;99859.84;6175244;23;20089;-83
2023/03/26 07:57:50;;;;;;;11.43;6.72;;;;;;;12.33;80.72;99858.19;6168958;23;20137;-85
2023/03/26 08:00:55;;;;;;;20.75;9.68;;;;;;;12.80;85.84;99845.13;6200406;23;20020;-83
2023/03/26 08:03:37;;;;;;;19.65;9.85;;;;;;;13.24;87.48;99841.38;6205446;23;20017;-82
2023/03/26 08:06:11;;;;;;;19.80;9.83;;;;;;;12.89;100.00;99825.34;6180013;23;20069;-84
2023/03/26 08:09:14;;;;;;;29.02;15.25;;;;;;;12.72;100.00;99829.34;6182374;23;20029;-84
2023/03/26 08:12:26;;;;;;;26.25;15.25;;;;;;;12.41;100.00;99820.88;6179533;23;20018;-82
2023/03/26 08:15:20;;;;;;;24.08;15.27;;;;;;;12.67;100.00;99820.28;6180572;23;20005;-84
2023/03/26 08:17:53;;;;;;;26.02;16.95;;;;;;;12.13;100.00;99817.34;6182165;23;20100;-82
2023/03/26 08:20:43;;;;;;;33.05;17.10;;;;;;;12.38;100.00;99818.59;6205526;23;20024;-81
2023/03/26 08:23:28;;;;;;;30.42;17.48;;;;;;;12.47;100.00;99811.31;6182655;23;20004;-82
2023/03/26 08:29:28;;;;;;;33.95;20.25;;;;;;;13.03;100.00;99820.13;6176634;23;20028;-86
2023/03/26 08:31:54;;;;;;;30.52;17.65;;;;;;;12.94;100.00;99828.25;6129727;23;20029;-86
2023/03/26 08:34:20;;;;;;;28.20;17.90;;;;;;;13.00;100.00;99815.19;6182661;23;20001;-84
2023/03/26 08:36:46;;;;;;;37.45;17.98;;;;;;;13.12;100.00;99777.25;6158350;23;20006;-87
2023/03/26 08:39:13;;;;;;;31.88;18.35;;;;;;;12.66;100.00;99770.78;6182965;23;20006;-86
2023/03/26 08:41:58;;;;;;;34.55;17.83;;;;;;;12.68;100.00;99774.91;6158579;23;20021;-87
2023/03/26 08:44:48;;;;;;;36.53;18.38;;;;;;;12.76;100.00;99777.38;6174888;23;20013;-86
2023/03/26 08:47:54;;;;;;;27.58;17.42;;;;;;;13.06;100.00;99788.63;6163186;23;20028;-85
2023/03/26 08:50:48;;;;;;;31.42;17.65;;;;;;;13.30;100.00;99784.69;6158392;23;20041;-85
2023/03/26 08:53:50;;;;;;;32.33;17.00;;;;;;;13.37;100.00;99777.56;6169741;23;20014;-83
2023/03/26 08:56:23;;;;;;;31.65;16.75;;;;;;;13.08;100.00;99785.78;6173118;23;20013;-87
2023/03/26 08:59:15;;;;;;;31.33;17.55;;;;;;;13.31;100.00;99776.53;6186200;23;20032;-87
2023/03/26 09:02:13;;;;;;;32.28;17.60;;;;;;;13.26;100.00;99776.28;6137647;23;20017;-88
2023/03/26 09:05:07;;;;;;;32.60;18.02;;;;;;;13.44;100.00;99781.91;6187043;23;20503;-88
2023/03/26 09:07:52;;;;;;;31.67;20.65;;;;;;;13.89;100.00;99766.25;6161495;23;20022;-87
2023/03/26 09:10:33;;;;;;;27.88;17.63;;;;;;;14.09;100.00;99763.63;6165888;23;20509;-89
2023/03/26 09:13:23;;;;;;;27.60;17.15;;;;;;;14.10;100.00;99757.28;6164524;23;20032;-87
2023/03/26 09:16:11;;;;;;;28.05;16.63;;;;;;;14.02;100.00;99750.28;6166527;23;20037;-87
2023/03/26 09:19:27;;;;;;;27.67;15.77;;;;;;;13.75;100.00;99762.78;6189604;23;20017;-88
2023/03/26 09:22:42;;;;;;;32.53;15.85;;;;;;;13.73;100.00;99748.00;6168500;23;20021;-89
2023/03/26 09:25:12;;;;;;;29.42;16.33;;;;;;;13.65;100.00;99749.03;6165737;23;20010;-88
2023/03/26 09:28:07;;;;;;;36.17;16.33;;;;;;;13.89;100.00;99736.97;6157614;23;20009;-87
2023/03/26 09:30:57;;;;;;;28.77;14.98;;;;;;;14.52;100.00;99754.25;6141649;23;20014;-83
2023/03/26 09:33:44;;;;;;;33.65;15.80;;;;;;;14.71;100.00;99758.75;6181272;23;20025;-83
2023/03/26 09:36:21;;;;;;;27.60;16.35;;;;;;;14.72;100.00;99747.03;6164540;23;20081;-88
2023/03/26 09:39:07;;;;;;;24.63;15.07;;;;;;;14.98;100.00;99741.66;6159995;23;20018;-87
2023/03/26 09:41:58;;;;;;;29.75;15.75;;;;;;;15.02;100.00;99737.53;6159147;23;20178;-90
2023/03/26 09:44:26;;;;;;;28.88;14.80;;;;;;;15.18;100.00;99751.47;6182825;23;20037;-89
2023/03/26 09:46:55;;;;;;;30.15;14.30;;;;;;;15.17;100.00;99755.16;6159650;23;20009;-86
2023/03/26 09:49:42;;;;;;;20.30;12.05;;;;;;;15.16;100.00;99738.31;6158438;23;20068;-86
2023/03/26 09:52:45;;;;;;;26.70;12.13;;;;;;;15.40;100.00;99750.16;6157809;23;20010;-86
2023/03/26 09:55:33;;;;;;;26.60;11.18;;;;;;;15.17;100.00;99731.97;6157392;23;20105;-88
2023/03/26 09:58:10;;;;;;;18.27;10.35;;;;;;;15.27;100.00;99735.00;6158091;23;20024;-86
2023/03/26 10:00:49;;;;;;;23.95;11.80;;;;;;;14.90;100.00;99720.56;6159142;23;20413;-81
2023/03/26 10:03:41;;;;;;;22.67;11.33;;;;;;;15.38;100.00;99714.81;6156992;23;20338;-85
2023/03/26 10:06:43;;;;;;;25.77;10.60;;;;;;;15.37;100.00;99708.69;6180978;23;20020;-84
2023/03/26 10:09:16;;;;;;;22.90;9.85;;;;;;;15.57;100.00;99700.59;6180920;23;20009;-86
2023/03/26 10:12:42;;;;;;;22.88;11.27;;;;;;;15.76;100.00;99696.97;6159887;23;20092;-85
2023/03/26 10:15:27;;;;;;;23.10;10.85;;;;;;;16.35;100.00;99685.81;6162024;23;20437;-88
2023/03/26 10:18:04;;;;;;;24.55;10.25;;;;;;;16.91;92.73;99672.28;6182617;23;20025;-85
2023/03/26 10:21:05;;;;;;;24.05;10.95;;;;;;;16.78;91.15;99661.75;6159357;23;20013;-85
2023/03/26 10:23:34;;;;;;;19.73;9.60;;;;;;;16.65;92.81;99655.72;6160065;23;20016;-86
2023/03/26 10:26:28;;;;;;;25.33;10.23;;;;;;;16.32;95.76;99643.47;6160540;23;20457;-84
2023/03/26 10:29:11;;;;;;;33.42;11.85;;;;;;;16.73;90.95;99642.88;6161667;23;20021;-83
2023/03/26 10:31:55;;;;;;;22.30;9.80;;;;;;;16.38;95.02;99652.47;6184724;23;20511;-86
2023/03/26 10:34:36;;;;;;;26.25;9.40;;;;;;;16.14;95.77;99642.63;6162218;23;20009;-83
2023/03/26 10:37:33;;;;;;;24.05;9.93;;;;;;;16.14;97.22;99634.59;6162623;23;20009;-85
2023/03/26 10:40:17;;;;;;;21.42;8.88;;;;;;;16.19;99.58;99626.72;6162349;23;20017;-86
2023/03/26 10:43:01;;;;;;;17.35;8.77;;;;;;;16.54;92.07;99639.31;6181937;23;20567;-89
2023/03/26 10:46:04;;;;;;;23.77;7.72;;;;;;;16.79;88.88;99635.81;6157407;23;20068;-85
2023/03/26 10:48:46;;;;;;;20.45;7.93;;;;;;;16.95;88.34;99630.66;6181229;23;20068;-84
2023/03/26 10:51:30;;;;;;;24.50;8.18;;;;;;;17.12;88.38;99624.69;6157906;23;20010;-81
2023/03/26 10:54:08;;;;;;;19.33;7.38;;;;;;;17.83;84.28;99622.81;6159466;23;19990;-84
2023/03/26 10:56:40;;;;;;;16.30;6.72;;;;;;;18.53;74.67;99638.97;6182003;23;20017;-82
2023/03/26 10:59:11;;;;;;;20.27;6.28;;;;;;;19.20;73.75;99650.84;6154178;23;20017;-83
2023/03/26 11:02:03;;;;;;;9.70;3.78;;;;;;;20.15;64.39;99636.69;6156331;23;20041;-85
2023/03/26 11:05:07;;;;;;;11.82;2.75;;;;;;;18.59;61.60;99628.09;6141163;23;20020;-82
2023/03/26 11:07:43;;;;;;;10.50;2.80;;;;;;;18.28;64.80;99627.66;6191408;23;20025;-87
2023/03/26 11:10:26;;;;;;;9.88;2.58;;;;;;;18.47;61.71;99618.41;6172179;23;20048;-86
2023/03/26 11:13:18;;;;;;;15.73;2.63;;;;;;;18.58;61.42;99620.31;6169465;23;20152;-83
2023/03/26 11:15:56;;;;;;;14.50;2.67;;;;;;;18.42;65.66;99612.94;6158718;23;20014;-84
2023/03/26 11:18:43;;;;;;;9.98;2.47;;;;;;;18.23;63.60;99595.38;6158575;23;20014;-89
2023/03/26 11:21:45;;;;;;;10.82;2.20;;;;;;;18.85;61.88;99588.38;6159941;23;20032;-83
2023/03/26 11:24:32;;;;;;;13.82;1.98;;;;;;;20.12;54.24;99584.97;6161329;23;20028;-86
2023/03/26 11:27:17;;;;;;;17.65;2.55;;;;;;;20.50;52.46;99578.00;6179800;23;20060;-90
2023/03/26 11:30:19;;;;;;;15.73;2.15;;;;;;;20.89;51.66;99576.06;6188823;23;20122;-86
2023/03/26 11:32:50;;;;;;;14.50;2.15;;;;;;;21.14;50.07;99573.69;6161823;23;20014;-90
2023/03/26 11:35:29;;;;;;;5.65;1.33;;;;;;;21.65;48.11;99585.75;6159047;23;20017;-86
2023/03/26 11:38:01;;;;;;;11.55;2.60;;;;;;;21.65;48.31;99599.22;6183596;23;21367;-86
2023/03/26 11:40:33;;;;;;;13.57;3.10;;;;;;;20.57;50.93;99589.41;6186119;23;20017;-87
2023/03/26 11:43:06;;;;;;;9.88;2.20;;;;;;;20.07;53.55;99595.69;6164016;23;20029;-84
2023/03/26 11:45:36;;;;;;;12.52;2.13;;;;;;;19.29;56.53;99592.19;6183707;23;20337;-87
2023/03/26 11:48:27;;;;;;;14.07;2.30;;;;;;;18.47;59.59;99575.47;6164010;23;20009;-87
2023/03/26 11:51:09;;;;;;;11.57;2.03;;;;;;;18.07;61.63;99568.19;6187035;23;20022;-87
2023/03/26 11:53:47;;;;;;;12.02;2.40;;;;;;;18.14;62.35;99559.19;6172201;23;20442;-88
2023/03/26 11:57:04;;;;;;;27.13;7.50;;;;;;;20.46;54.34;99531.13;6161617;23;20087;-85
2023/03/26 11:59:40;;;;;;;14.43;4.03;;;;;;;22.17;45.37;99565.09;6162990;23;20025;-86
2023/03/26 12:02:08;;;;;;;49.72;8.45;;;;;;;22.12;43.85;99557.00;6187903;23;20010;-86
2023/03/26 12:04:36;;;;;;;24.63;3.80;;;;;;;21.05;46.12;99556.28;6162997;23;20016;-88
2023/03/26 12:07:34;;;;;;;9.25;2.92;;;;;;;20.26;48.99;99552.34;6167230;23;20017;-90
2023/03/26 12:10:06;;;;;;;11.70;2.63;;;;;;;19.61;52.85;99534.19;6137200;23;20071;-90
2023/03/26 12:12:35;;;;;;;;;;;;;;;19.28;54.10;99520.69;6165512;23;20453;-88
2023/03/26 12:15:01;;;;;;;9.55;2.65;;;;;;;19.06;55.35;99517.88;6185748;23;19908;-90
2023/03/26 12:17:40;;;;;;;12.07;3.23;;;;;;;18.82;56.75;99514.53;6194169;23;20073;-89
2023/03/26 12:20:26;;;;;;;9.93;2.22;;;;;;;18.71;57.97;99506.50;6167009;23;20268;-92
2023/03/26 12:22:59;;;;;;;11.43;3.95;;;;;;;18.80;57.63;99503.19;6182742;23;20020;-85
2023/03/26 12:25:31;;;;;;;94.47;51.08;;;;;;;18.69;59.45;99487.97;6160195;23;20005;-84
2023/03/26 12:28:01;;;;;;;65.03;36.78;;;;;;;18.73;59.28;99481.03;6189331;23;20397;-83
2023/03/26 12:30:33;;;;;;;21.97;5.40;;;;;;;18.92;58.30;99476.31;6158759;23;20017;-83